Time;durP1;ratioP1;P1;durP2;ratioP2;P2;SDS_P1;SDS_P2;PMS_P1;PMS_P2;Temp;Humidity;BMP_temperature;BMP_pressure;BME280_temperature;BME280_humidity;BME280_pressure;Samples;Min_cycle;Max_cycle;Signal;HPM_P1;HPM_P2
2022/05/27 00:01:55;;;;;;;8.43;7.63;;;13.90;99.90;;;;;;4960250;28;20974;-69
2022/05/27 00:04:43;;;;;;;7.73;6.97;;;13.90;99.90;;;;;;4959674;28;20550;-69
2022/05/27 00:07:33;;;;;;;9.10;7.87;;;13.90;99.90;;;;;;4956861;28;20489;-68
2022/05/27 00:10:23;;;;;;;9.20;7.60;;;13.80;99.90;;;;;;4961747;28;20507;-68
2022/05/27 00:13:13;;;;;;;8.67;7.87;;;13.90;99.90;;;;;;4956453;28;20482;-68
2022/05/27 00:16:09;;;;;;;11.30;7.73;;;13.80;99.90;;;;;;4958618;28;20471;-68
2022/05/27 00:18:59;;;;;;;10.07;7.60;;;13.80;99.90;;;;;;4964734;28;20545;-69
2022/05/27 00:21:47;;;;;;;8.70;7.20;;;13.80;99.90;;;;;;4961050;28;20546;-68
2022/05/27 00:24:36;;;;;;;9.23;7.30;;;13.70;99.90;;;;;;4958485;28;20543;-68
2022/05/27 00:27:26;;;;;;;8.20;7.40;;;13.80;99.90;;;;;;4962629;28;20496;-68
2022/05/27 00:30:19;;;;;;;9.63;7.60;;;13.80;99.90;;;;;;4963017;28;20549;-69
2022/05/27 00:33:07;;;;;;;8.60;6.67;;;13.80;99.90;;;;;;4961717;28;20626;-68
2022/05/27 00:35:57;;;;;;;7.17;6.50;;;13.80;99.90;;;;;;4964016;28;20499;-68
2022/05/27 00:38:45;;;;;;;7.80;6.13;;;13.80;99.90;;;;;;4963999;28;20463;-69
2022/05/27 00:41:35;;;;;;;8.00;5.93;;;13.80;99.90;;;;;;4960646;28;21045;-68
2022/05/27 00:44:25;;;;;;;6.77;6.03;;;13.80;99.90;;;;;;4960128;28;20579;-68
2022/05/27 00:47:16;;;;;;;8.03;6.27;;;13.80;99.90;;;;;;4965372;28;20495;-68
2022/05/27 00:50:09;;;;;;;9.57;6.17;;;13.80;99.90;;;;;;4965074;28;20575;-68
2022/05/27 00:53:07;;;;;;;8.90;6.07;;;13.80;99.90;;;;;;4962415;28;20470;-68
2022/05/27 01:04:10;;;;;;;9.47;5.50;;;13.70;99.90;;;;;;4955675;28;20979;-68
2022/05/27 01:06:58;;;;;;;7.50;5.63;;;13.80;99.90;;;;;;4950426;28;20566;-69
2022/05/27 01:09:52;;;;;;;9.83;5.10;;;13.70;99.90;;;;;;4962742;28;20451;-68
2022/05/27 01:13:02;;;;;;;7.43;4.40;;;13.70;99.90;;;;;;4960712;28;20507;-68
2022/05/27 01:16:02;;;;;;;9.37;4.70;;;13.80;99.90;;;;;;4961485;28;21068;-69
2022/05/27 01:22:43;;;;;;;8.60;4.60;;;13.70;99.90;;;;;;4931644;28;20459;-68
2022/05/27 01:26:15;;;;;;;9.07;3.73;;;13.70;99.90;;;;;;4960470;28;20548;-68
2022/05/27 01:29:30;;;;;;;8.67;3.50;;;13.70;99.90;;;;;;4955290;28;20470;-68
2022/05/27 01:32:28;;;;;;;12.27;4.90;;;13.60;99.90;;;;;;4960508;28;20479;-68
2022/05/27 01:35:22;;;;;;;9.77;3.50;;;13.60;99.90;;;;;;4964123;28;20450;-68
2022/05/27 01:38:15;;;;;;;6.73;3.30;;;13.50;99.90;;;;;;4963320;28;20573;-68
2022/05/27 01:41:17;;;;;;;8.93;3.87;;;13.50;99.90;;;;;;4963556;28;21105;-69
2022/05/27 01:44:11;;;;;;;8.53;3.70;;;13.40;99.90;;;;;;4962450;28;20507;-68
2022/05/27 01:47:03;;;;;;;5.57;3.23;;;13.40;99.90;;;;;;4958667;28;20479;-68
2022/05/27 01:50:02;;;;;;;8.90;3.60;;;13.50;99.90;;;;;;4954718;28;20470;-69
2022/05/27 01:52:56;;;;;;;12.13;3.40;;;13.40;99.90;;;;;;4961870;28;20501;-69
2022/05/27 01:55:58;;;;;;;8.90;3.37;;;13.40;99.90;;;;;;4961936;28;20456;-68
2022/05/27 01:58:53;;;;;;;9.90;3.70;;;13.40;99.90;;;;;;4962090;28;20607;-68
2022/05/27 02:01:48;;;;;;;10.30;3.33;;;13.30;99.90;;;;;;4961826;28;20467;-68
2022/05/27 02:04:40;;;;;;;10.50;3.90;;;13.20;99.90;;;;;;4961750;28;20501;-69
2022/05/27 02:07:37;;;;;;;5.90;2.70;;;13.20;99.90;;;;;;4962136;28;20550;-68
2022/05/27 02:10:30;;;;;;;8.17;3.30;;;13.20;99.90;;;;;;4959306;28;20554;-68
2022/05/27 02:13:25;;;;;;;7.37;3.03;;;13.20;99.90;;;;;;4960995;28;20479;-69
2022/05/27 02:16:18;;;;;;;6.43;3.03;;;13.20;99.90;;;;;;4960920;28;20606;-69
2022/05/27 02:19:11;;;;;;;7.63;3.00;;;13.20;99.90;;;;;;4961176;28;20452;-68
2022/05/27 02:22:04;;;;;;;8.30;2.83;;;13.20;99.90;;;;;;4960538;28;20626;-69
2022/05/27 02:24:59;;;;;;;6.80;2.70;;;13.20;99.90;;;;;;4961800;28;20478;-68
2022/05/27 02:27:54;;;;;;;5.97;2.80;;;13.10;99.90;;;;;;4959038;28;20536;-68
2022/05/27 02:30:52;;;;;;;8.47;3.10;;;13.10;99.90;;;;;;4961220;28;20569;-68
2022/05/27 02:36:57;;;;;;;7.90;3.53;;;13.00;99.90;;;;;;4961554;28;20474;-68
2022/05/27 02:39:46;;;;;;;7.00;3.40;;;13.00;99.90;;;;;;4961953;28;20528;-69
2022/05/27 02:42:41;;;;;;;7.00;2.73;;;13.00;99.90;;;;;;4959671;28;21275;-68
2022/05/27 02:45:40;;;;;;;7.70;3.20;;;12.90;99.90;;;;;;4960601;28;20513;-68
2022/05/27 02:48:42;;;;;;;7.37;3.57;;;12.90;99.90;;;;;;4964074;28;20446;-68
2022/05/27 02:51:46;;;;;;;9.10;2.70;;;12.80;99.90;;;;;;4960778;28;20466;-68
2022/05/27 02:54:47;;;;;;;8.30;3.13;;;12.80;99.90;;;;;;4963648;28;20531;-68
2022/05/27 02:57:42;;;;;;;10.10;2.73;;;12.80;99.90;;;;;;4964945;28;20502;-68
2022/05/27 03:00:40;;;;;;;8.87;2.93;;;12.80;99.90;;;;;;4963548;28;20513;-69
2022/05/27 03:03:31;;;;;;;8.33;2.70;;;12.80;99.90;;;;;;4958887;28;20520;-68
2022/05/27 03:06:32;;;;;;;6.80;2.60;;;12.70;99.90;;;;;;4960015;28;20629;-68
2022/05/27 03:09:30;;;;;;;7.40;2.87;;;12.70;99.90;;;;;;4959112;28;20467;-68
2022/05/27 03:12:31;;;;;;;5.20;2.50;;;12.70;99.90;;;;;;4955787;28;20558;-68
2022/05/27 03:15:31;;;;;;;8.63;2.80;;;12.60;99.90;;;;;;4959145;28;21020;-68
2022/05/27 03:18:36;;;;;;;4.50;2.13;;;12.50;99.90;;;;;;4959392;28;20512;-68
2022/05/27 03:21:32;;;;;;;5.77;1.87;;;12.60;99.90;;;;;;4959673;28;20455;-68
2022/05/27 03:24:25;;;;;;;6.43;3.20;;;12.50;99.90;;;;;;4957104;28;21057;-68
2022/05/27 03:27:23;;;;;;;6.63;2.57;;;12.40;99.90;;;;;;4960450;28;20897;-68
2022/05/27 03:30:16;;;;;;;8.10;2.70;;;12.50;99.90;;;;;;4958019;28;20899;-68
2022/05/27 03:33:13;;;;;;;6.23;2.47;;;12.50;99.90;;;;;;4959356;28;20490;-68
2022/05/27 03:36:11;;;;;;;8.10;2.73;;;12.40;99.90;;;;;;4958845;28;20498;-68
2022/05/27 03:39:02;;;;;;;7.07;2.40;;;12.40;99.90;;;;;;4960382;28;20498;-69
2022/05/27 03:42:01;;;;;;;9.27;3.20;;;12.40;99.90;;;;;;4956543;28;20514;-69
2022/05/27 03:44:53;;;;;;;7.10;2.07;;;12.40;99.90;;;;;;4961223;28;20450;-68
2022/05/27 03:47:43;;;;;;;6.70;2.20;;;12.40;99.90;;;;;;4963934;28;20509;-68
2022/05/27 03:50:34;;;;;;;5.30;2.60;;;12.30;99.90;;;;;;4963061;28;20450;-68
2022/05/27 03:54:03;;;;;;;8.70;2.77;;;12.30;99.90;;;;;;4962265;28;20485;-68
2022/05/27 03:56:39;;;;;;;7.27;2.87;;;12.40;99.90;;;;;;4963867;28;20581;-69
2022/05/27 03:59:30;;;;;;;3.90;1.93;;;12.30;99.90;;;;;;4967551;28;20546;-68
2022/05/27 04:02:23;;;;;;;6.70;2.70;;;12.30;99.90;;;;;;4963712;28;20557;-68
2022/05/27 04:05:16;;;;;;;6.47;2.40;;;12.30;99.90;;;;;;4967484;28;21118;-68
2022/05/27 04:08:08;;;;;;;5.70;2.20;;;12.30;99.90;;;;;;4965214;28;20988;-69
2022/05/27 04:10:56;;;;;;;8.23;2.70;;;12.20;99.90;;;;;;4962703;28;20521;-69
2022/05/27 04:13:44;;;;;;;7.03;2.37;;;12.30;99.90;;;;;;4962540;28;20471;-70
2022/05/27 04:16:32;;;;;;;5.60;2.50;;;12.20;99.90;;;;;;4964033;28;20553;-69
2022/05/27 04:19:21;;;;;;;6.43;2.07;;;12.20;99.90;;;;;;4962263;28;20514;-69
2022/05/27 04:22:09;;;;;;;9.30;2.30;;;12.10;99.90;;;;;;4963983;28;21109;-69
2022/05/27 04:24:59;;;;;;;9.37;2.73;;;12.30;99.90;;;;;;4963392;28;20473;-70
2022/05/27 04:27:50;;;;;;;8.70;2.30;;;12.30;99.90;;;;;;4964194;28;20630;-71
2022/05/27 04:30:38;;;;;;;9.70;3.07;;;12.30;99.90;;;;;;4962866;28;20471;-69
2022/05/27 04:33:27;;;;;;;7.17;2.20;;;12.40;99.90;;;;;;4964056;28;20470;-70
2022/05/27 04:36:16;;;;;;;3.40;1.97;;;12.40;99.90;;;;;;4959641;28;20978;-69
2022/05/27 04:39:04;;;;;;;7.53;2.57;;;12.30;99.90;;;;;;4961963;28;20505;-69
2022/05/27 04:41:53;;;;;;;6.13;2.07;;;12.20;99.90;;;;;;4963151;28;20546;-70
2022/05/27 04:44:42;;;;;;;7.10;3.03;;;12.30;99.90;;;;;;4962565;28;20455;-69
2022/05/27 04:47:33;;;;;;;7.10;2.27;;;12.30;99.90;;;;;;4963185;28;20482;-69
2022/05/27 04:50:21;;;;;;;7.57;2.50;;;12.30;99.90;;;;;;4962097;28;20483;-69
2022/05/27 04:53:10;;;;;;;6.57;2.00;;;12.30;99.90;;;;;;4962716;28;21099;-69
2022/05/27 04:55:59;;;;;;;5.00;2.07;;;12.20;99.90;;;;;;4964128;28;20569;-69
2022/05/27 04:58:48;;;;;;;3.63;1.50;;;12.30;99.90;;;;;;4964795;28;20482;-69
2022/05/27 05:01:36;;;;;;;7.17;1.60;;;12.20;99.90;;;;;;4963441;28;20554;-70
2022/05/27 05:04:24;;;;;;;18.23;2.37;;;12.30;99.90;;;;;;4965651;28;20450;-69
2022/05/27 05:07:13;;;;;;;4.90;1.80;;;12.30;99.90;;;;;;4971622;28;20478;-69
2022/05/27 05:10:01;;;;;;;8.03;2.00;;;12.30;99.90;;;;;;4969941;28;20498;-70
2022/05/27 05:12:51;;;;;;;4.13;2.13;;;12.30;99.90;;;;;;4965637;28;20499;-69
2022/05/27 05:15:42;;;;;;;4.80;1.87;;;12.30;99.90;;;;;;4963751;28;20827;-70
2022/05/27 05:18:32;;;;;;;3.90;1.80;;;12.20;99.90;;;;;;4962810;28;20518;-69
2022/05/27 05:21:23;;;;;;;5.07;1.80;;;12.30;99.90;;;;;;4962315;28;20498;-69
2022/05/27 05:24:11;;;;;;;5.70;1.63;;;12.30;99.90;;;;;;4958973;28;20470;-70
2022/05/27 05:27:00;;;;;;;6.73;2.10;;;12.30;99.90;;;;;;4957229;28;20521;-70
2022/05/27 05:29:52;;;;;;;5.80;1.87;;;12.30;99.90;;;;;;4961589;28;20566;-69
2022/05/27 05:32:44;;;;;;;8.53;2.23;;;12.40;99.90;;;;;;4960983;28;20545;-69
2022/05/27 05:35:34;;;;;;;3.40;1.80;;;12.30;99.90;;;;;;4965768;28;20513;-69
2022/05/27 05:38:22;;;;;;;5.77;2.20;;;12.40;99.90;;;;;;4966139;28;20458;-69
2022/05/27 05:41:10;;;;;;;4.00;1.90;;;12.40;99.90;;;;;;4964429;28;20479;-69
2022/05/27 05:44:00;;;;;;;5.10;2.03;;;12.40;99.90;;;;;;4957431;28;20664;-70
2022/05/27 05:46:53;;;;;;;5.40;1.80;;;12.40;99.90;;;;;;4961071;28;20517;-69
2022/05/27 05:49:44;;;;;;;2.70;1.63;;;12.50;99.90;;;;;;4962181;28;20451;-69
2022/05/27 05:52:32;;;;;;;4.60;2.27;;;12.50;99.90;;;;;;4960900;28;20494;-69
2022/05/27 05:55:22;;;;;;;7.33;2.10;;;12.60;99.90;;;;;;4961421;28;20881;-70
2022/05/27 05:58:11;;;;;;;6.47;1.90;;;12.60;99.90;;;;;;4960263;28;20462;-70
2022/05/27 06:00:59;;;;;;;5.00;1.80;;;12.60;99.90;;;;;;4962351;28;20539;-69
2022/05/27 06:03:53;;;;;;;8.87;2.40;;;12.60;99.90;;;;;;4962293;28;21150;-69
2022/05/27 06:06:47;;;;;;;7.30;2.33;;;12.80;99.90;;;;;;4960987;28;20482;-69
2022/05/27 06:09:41;;;;;;;14.93;3.10;;;12.90;99.90;;;;;;4962725;28;20459;-69
2022/05/27 06:12:33;;;;;;;5.70;2.30;;;12.90;99.90;;;;;;4959202;28;20482;-69
2022/05/27 06:15:32;;;;;;;;;;;;;;;;;;;;;
2022/05/27 06:18:23;;;;;;;5.03;2.23;;;12.90;99.90;;;;;;4960279;28;20455;-70
2022/05/27 06:21:13;;;;;;;7.03;2.00;;;13.00;99.90;;;;;;4955990;28;20458;-69
2022/05/27 06:24:06;;;;;;;3.77;1.80;;;13.00;99.90;;;;;;4959029;28;20989;-69
2022/05/27 06:27:04;;;;;;;6.07;1.80;;;13.00;99.90;;;;;;4961399;28;20475;-69
2022/05/27 06:36:07;;;;;;;8.17;2.10;;;13.10;99.90;;;;;;4955512;28;20546;-69
2022/05/27 06:38:57;;;;;;;5.57;2.17;;;13.10;99.90;;;;;;4962033;28;20843;-69
2022/05/27 06:41:47;;;;;;;6.17;2.30;;;13.10;99.90;;;;;;4958799;28;20546;-70
2022/05/27 06:44:35;;;;;;;6.90;1.80;;;13.20;99.90;;;;;;4960542;28;20451;-69
2022/05/27 06:47:23;;;;;;;4.93;1.93;;;13.20;99.90;;;;;;4960509;28;20993;-70
2022/05/27 06:50:11;;;;;;;5.13;2.77;;;13.20;99.90;;;;;;4962465;28;20444;-69
2022/05/27 06:53:02;;;;;;;4.90;2.13;;;13.20;99.90;;;;;;4961400;28;20467;-70
2022/05/27 06:55:52;;;;;;;6.27;1.80;;;13.20;99.90;;;;;;4961614;28;20475;-67
2022/05/27 06:58:46;;;;;;;3.63;2.60;;;13.30;99.90;;;;;;4953295;28;20482;-70
2022/05/27 07:01:47;;;;;;;5.03;2.23;;;13.40;99.90;;;;;;4962300;28;20462;-69
2022/05/27 07:04:37;;;;;;;4.73;1.73;;;13.40;99.90;;;;;;4960674;28;21057;-69
2022/05/27 07:07:31;;;;;;;5.77;2.10;;;13.50;99.90;;;;;;4961026;28;20533;-70
2022/05/27 07:10:19;;;;;;;5.50;2.10;;;13.50;99.90;;;;;;4957802;28;20531;-69
2022/05/27 07:13:07;;;;;;;6.07;2.13;;;13.60;99.90;;;;;;4960502;28;20907;-69
2022/05/27 07:15:57;;;;;;;6.73;2.20;;;13.70;99.90;;;;;;4961011;28;20520;-69
2022/05/27 07:18:47;;;;;;;6.13;2.00;;;13.60;99.90;;;;;;4960770;28;20990;-69
2022/05/27 07:21:43;;;;;;;8.90;2.33;;;13.50;99.90;;;;;;4961121;28;20600;-69
2022/05/27 07:24:33;;;;;;;6.23;1.90;;;13.50;99.90;;;;;;4959869;28;20970;-69
2022/05/27 07:27:23;;;;;;;6.03;1.90;;;13.50;99.90;;;;;;4959271;28;20471;-69
2022/05/27 07:30:16;;;;;;;5.53;2.13;;;13.60;99.90;;;;;;4955651;28;20585;-69
2022/05/27 07:33:06;;;;;;;5.43;1.97;;;13.70;99.90;;;;;;4960832;28;20482;-69
2022/05/27 07:35:57;;;;;;;10.27;3.40;;;13.80;99.90;;;;;;4955718;28;20598;-67
2022/05/27 07:38:47;;;;;;;8.67;2.97;;;13.90;99.90;;;;;;4956462;28;20497;-69
2022/05/27 07:41:37;;;;;;;7.87;2.60;;;13.90;99.90;;;;;;4955243;28;20481;-69
2022/05/27 07:44:30;;;;;;;8.57;2.20;;;13.90;99.90;;;;;;4958938;28;20455;-69
2022/05/27 07:47:20;;;;;;;4.90;2.07;;;13.80;99.90;;;;;;4958881;28;20986;-68
2022/05/27 07:50:13;;;;;;;5.20;2.27;;;13.80;99.90;;;;;;4960968;28;20505;-69
2022/05/27 07:53:03;;;;;;;5.10;2.33;;;13.90;99.90;;;;;;4961070;28;20978;-69
2022/05/27 07:55:56;;;;;;;7.23;2.27;;;14.00;99.90;;;;;;4960888;28;20561;-72
2022/05/27 07:58:44;;;;;;;4.20;2.30;;;14.10;99.90;;;;;;4961080;28;20598;-69
2022/05/27 08:01:36;;;;;;;6.13;1.93;;;14.20;99.90;;;;;;4959686;28;20512;-68
2022/05/27 08:04:27;;;;;;;6.50;2.13;;;14.20;99.90;;;;;;4960234;28;20460;-68
2022/05/27 08:07:21;;;;;;;5.37;2.33;;;14.30;99.90;;;;;;4960673;28;20879;-69
2022/05/27 08:10:10;;;;;;;7.93;2.33;;;14.40;99.90;;;;;;4962082;28;20497;-69
2022/05/27 08:13:03;;;;;;;4.20;2.00;;;14.50;99.90;;;;;;4959857;28;20471;-69
2022/05/27 08:15:55;;;;;;;5.47;2.20;;;14.50;99.90;;;;;;4960829;28;20549;-69
2022/05/27 08:18:44;;;;;;;5.20;1.80;;;14.40;99.90;;;;;;4962338;28;20548;-70
2022/05/27 08:21:36;;;;;;;8.17;2.73;;;14.50;99.90;;;;;;4961457;28;20513;-70
2022/05/27 08:24:27;;;;;;;4.20;1.93;;;14.50;99.90;;;;;;4959392;28;20485;-70
2022/05/27 08:27:16;;;;;;;2.97;1.63;;;14.50;99.90;;;;;;4960877;28;20474;-70
2022/05/27 08:30:05;;;;;;;6.03;1.93;;;14.60;99.90;;;;;;4962509;28;20533;-70
2022/05/27 08:33:01;;;;;;;5.43;2.30;;;14.60;99.90;;;;;;4961991;28;20524;-70
2022/05/27 08:38:59;;;;;;;3.93;1.70;;;14.60;99.90;;;;;;4963685;28;20609;-70
2022/05/27 08:42:04;;;;;;;7.80;2.90;;;14.60;99.90;;;;;;4962026;28;20474;-70
2022/05/27 08:45:03;;;;;;;4.73;2.00;;;14.50;99.90;;;;;;4960855;28;20550;-70
2022/05/27 08:47:57;;;;;;;5.90;2.40;;;14.50;99.90;;;;;;4964507;28;20498;-70
2022/05/27 08:50:50;;;;;;;4.43;1.93;;;14.60;99.90;;;;;;4962936;28;20534;-70
2022/05/27 08:53:42;;;;;;;4.23;1.83;;;14.70;99.90;;;;;;4962803;28;21511;-70
2022/05/27 08:59:56;;;;;;;4.93;2.17;;;14.90;99.90;;;;;;4964142;28;20451;-70
2022/05/27 09:02:58;;;;;;;5.40;2.33;;;14.90;99.90;;;;;;4960920;28;20483;-69
2022/05/27 09:05:56;;;;;;;7.63;2.37;;;15.00;99.90;;;;;;4963023;28;20471;-69
2022/05/27 09:08:45;;;;;;;5.73;2.10;;;15.10;99.90;;;;;;4965107;28;20514;-69
2022/05/27 09:11:47;;;;;;;8.63;2.30;;;15.10;99.90;;;;;;4961468;28;20498;-69
2022/05/27 09:14:45;;;;;;;4.50;2.13;;;15.00;99.90;;;;;;4960133;28;20458;-69
2022/05/27 09:17:44;;;;;;;4.90;2.13;;;14.90;99.90;;;;;;4960703;28;21091;-69
2022/05/27 09:21:00;;;;;;;4.17;2.13;;;14.90;99.90;;;;;;4962818;28;20470;-70
2022/05/27 09:24:11;;;;;;;4.13;2.13;;;14.90;99.90;;;;;;4954353;28;20566;-70
2022/05/27 09:27:07;;;;;;;7.37;2.43;;;15.00;99.90;;;;;;4956022;28;21001;-70
2022/05/27 09:30:06;;;;;;;5.93;1.90;;;14.90;99.90;;;;;;4963023;28;20487;-70
2022/05/27 09:32:58;;;;;;;6.00;3.57;;;14.90;99.90;;;;;;4960246;28;20479;-70
2022/05/27 09:35:52;;;;;;;6.50;2.73;;;14.90;99.90;;;;;;4962828;28;20967;-69
2022/05/27 09:38:52;;;;;;;6.50;2.67;;;14.90;99.90;;;;;;4962917;28;20450;-70
2022/05/27 09:41:47;;;;;;;5.17;2.00;;;14.90;99.90;;;;;;4961266;28;20519;-69
2022/05/27 09:44:48;;;;;;;9.20;2.47;;;14.80;99.90;;;;;;4961371;28;20581;-69
2022/05/27 09:47:37;;;;;;;6.30;2.70;;;14.80;99.90;;;;;;4962918;28;20462;-69
2022/05/27 09:50:35;;;;;;;6.47;2.43;;;14.90;99.90;;;;;;4961248;28;20613;-69
2022/05/27 09:53:28;;;;;;;9.40;2.80;;;15.00;99.90;;;;;;4962956;28;20477;-69
2022/05/27 09:56:35;;;;;;;8.77;2.20;;;14.90;99.90;;;;;;4960326;28;20558;-69
2022/05/27 09:59:36;;;;;;;7.27;2.60;;;14.70;99.90;;;;;;4961744;28;20465;-69
2022/05/27 10:02:34;;;;;;;8.67;2.70;;;14.50;99.90;;;;;;4962611;28;20565;-69
2022/05/27 10:05:28;;;;;;;11.27;3.07;;;14.50;99.90;;;;;;4961563;28;21002;-69
2022/05/27 10:08:32;;;;;;;7.43;2.50;;;14.50;99.90;;;;;;4961386;28;20470;-69
2022/05/27 10:11:27;;;;;;;6.03;2.23;;;14.60;99.90;;;;;;4964590;28;20447;-69
2022/05/27 10:14:24;;;;;;;7.47;2.30;;;14.70;99.90;;;;;;4959144;28;20994;-70
2022/05/27 10:17:15;;;;;;;7.07;2.37;;;14.80;99.90;;;;;;4959280;28;20529;-69
2022/05/27 10:20:22;;;;;;;5.50;2.10;;;15.00;99.90;;;;;;4961894;28;20818;-70
2022/05/27 10:23:21;;;;;;;7.70;2.23;;;15.00;99.90;;;;;;4961159;28;21007;-69
2022/05/27 10:26:25;;;;;;;7.37;2.07;;;15.00;99.90;;;;;;4963625;28;20962;-69
2022/05/27 10:29:20;;;;;;;8.17;1.90;;;15.00;99.90;;;;;;4959631;28;20483;-70
2022/05/27 10:32:09;;;;;;;6.17;2.37;;;14.90;99.90;;;;;;4962165;28;20473;-69
2022/05/27 10:34:58;;;;;;;9.27;2.30;;;14.90;99.90;;;;;;4960277;28;21052;-69
2022/05/27 10:37:59;;;;;;;5.73;2.40;;;14.90;99.90;;;;;;4972233;28;20495;-70
2022/05/27 10:40:55;;;;;;;7.03;2.30;;;14.90;99.90;;;;;;4973783;28;20498;-70
2022/05/27 10:43:59;;;;;;;4.30;2.20;;;15.10;99.90;;;;;;4962635;28;20485;-70
2022/05/27 10:46:52;;;;;;;6.57;2.00;;;15.20;99.90;;;;;;4961576;28;20570;-70
2022/05/27 10:50:05;;;;;;;5.57;2.30;;;15.20;99.90;;;;;;4960660;28;21007;-70
2022/05/27 10:53:17;;;;;;;7.63;2.83;;;14.90;99.90;;;;;;4958396;28;20565;-68
2022/05/27 10:56:30;;;;;;;4.80;2.57;;;14.60;99.90;;;;;;4960696;28;20478;-69
2022/05/27 11:02:51;;;;;;;9.30;3.10;;;14.10;99.90;;;;;;4961544;28;20546;-69
2022/05/27 11:05:53;;;;;;;4.43;2.30;;;14.00;99.90;;;;;;4961938;28;20443;-69
2022/05/27 11:08:52;;;;;;;8.67;2.63;;;13.90;99.90;;;;;;4961186;28;20466;-69
2022/05/27 11:11:51;;;;;;;9.30;2.90;;;13.90;99.90;;;;;;4960750;28;20470;-69
2022/05/27 11:15:11;;;;;;;4.73;2.43;;;13.90;99.90;;;;;;4961820;28;20492;-69
2022/05/27 11:18:10;;;;;;;9.20;2.80;;;14.00;99.90;;;;;;4960575;28;20887;-69
2022/05/27 11:21:23;;;;;;;4.70;2.43;;;14.00;99.90;;;;;;4959296;28;20553;-69
2022/05/27 11:25:09;;;;;;;6.50;2.23;;;13.90;99.90;;;;;;4960141;28;20568;-69
2022/05/27 11:28:44;;;;;;;15.33;3.10;;;13.90;99.90;;;;;;4848652;29;20493;-69
2022/05/27 11:31:49;;;;;;;6.03;2.60;;;13.60;99.90;;;;;;4881136;28;20920;-70
2022/05/27 11:34:49;;;;;;;6.13;2.30;;;13.30;99.90;;;;;;4960498;28;20482;-69
2022/05/27 11:37:53;;;;;;;6.60;2.90;;;13.00;99.90;;;;;;4958906;28;21017;-69
2022/05/27 11:41:00;;;;;;;7.20;2.77;;;13.00;99.90;;;;;;4958768;28;20731;-69
2022/05/27 11:43:58;;;;;;;7.40;2.80;;;13.10;99.90;;;;;;4958864;28;20486;-69
2022/05/27 11:47:23;;;;;;;6.77;2.90;;;13.20;99.90;;;;;;4960213;28;20640;-71
2022/05/27 11:50:26;;;;;;;6.40;2.57;;;13.30;99.90;;;;;;4959868;28;20504;-73
2022/05/27 11:53:27;;;;;;;12.50;3.23;;;13.30;99.90;;;;;;4960368;28;20550;-69
2022/05/27 11:56:27;;;;;;;7.80;2.40;;;13.30;99.90;;;;;;4957156;28;21025;-69
2022/05/27 11:59:24;;;;;;;7.53;2.30;;;13.30;99.90;;;;;;4957986;28;20982;-69
2022/05/27 12:02:33;;;;;;;8.60;2.73;;;13.40;99.90;;;;;;4954398;28;20518;-69
2022/05/27 12:05:39;;;;;;;10.10;2.40;;;13.40;99.90;;;;;;4960133;28;20738;-69
2022/05/27 12:08:36;;;;;;;9.50;2.73;;;13.60;99.90;;;;;;4962296;28;20593;-69
2022/05/27 12:11:31;;;;;;;6.40;2.33;;;13.70;99.90;;;;;;4962060;28;20608;-69
2022/05/27 12:14:31;;;;;;;4.57;2.10;;;13.70;99.90;;;;;;4963632;28;21057;-70
2022/05/27 12:17:40;;;;;;;7.40;2.30;;;13.80;99.90;;;;;;4965408;28;20564;-69
2022/05/27 12:20:34;;;;;;;11.47;2.90;;;13.70;99.90;;;;;;4965612;28;20590;-69
2022/05/27 12:23:27;;;;;;;7.80;2.80;;;13.70;99.90;;;;;;4964109;28;20484;-69
2022/05/27 12:26:20;;;;;;;7.87;2.60;;;14.00;99.90;;;;;;4964340;28;20638;-68
2022/05/27 12:29:11;;;;;;;6.97;2.43;;;14.10;99.90;;;;;;4957031;28;20474;-69
2022/05/27 12:32:08;;;;;;;4.97;2.10;;;14.10;99.90;;;;;;4960099;28;20991;-69
2022/05/27 12:35:18;;;;;;;6.07;2.00;;;14.10;99.90;;;;;;4963749;28;20465;-69
2022/05/27 12:38:12;;;;;;;8.43;2.80;;;14.10;99.90;;;;;;4959296;28;20495;-69
2022/05/27 12:41:04;;;;;;;5.87;2.67;;;14.30;99.90;;;;;;4963453;28;20459;-69
2022/05/27 12:44:08;;;;;;;7.03;2.47;;;14.50;99.90;;;;;;4952873;28;20584;-69
2022/05/27 12:47:00;;;;;;;7.03;2.00;;;14.70;99.90;;;;;;4965303;28;21055;-69
2022/05/27 12:50:03;;;;;;;4.80;1.93;;;14.60;99.90;;;;;;4964345;28;20442;-69
2022/05/27 12:53:16;;;;;;;9.20;1.77;;;14.50;99.90;;;;;;4962483;28;21032;-69
2022/05/27 13:02:57;;;;;;;6.90;1.80;;;14.80;99.90;;;;;;4963620;28;20569;-69
2022/05/27 13:06:15;;;;;;;8.50;2.33;;;14.90;99.90;;;;;;4961594;28;21090;-69
2022/05/27 13:09:08;;;;;;;7.87;2.00;;;15.00;99.90;;;;;;4960302;28;20475;-69
2022/05/27 13:11:58;;;;;;;6.90;2.00;;;15.20;99.90;;;;;;4960818;28;20477;-69
2022/05/27 13:14:51;;;;;;;7.53;2.10;;;15.50;99.90;;;;;;4962074;28;20900;-69
2022/05/27 13:17:46;;;;;;;5.23;1.63;;;15.40;99.90;;;;;;4961137;28;20485;-69
2022/05/27 13:20:51;;;;;;;5.33;1.60;;;15.40;99.90;;;;;;4962988;28;20905;-69
2022/05/27 13:24:02;;;;;;;6.43;2.00;;;15.30;99.90;;;;;;4959000;28;20482;-69
2022/05/27 13:26:57;;;;;;;5.73;2.03;;;15.20;99.90;;;;;;4960846;28;20478;-70
2022/05/27 13:29:58;;;;;;;5.90;2.27;;;15.10;99.90;;;;;;4963180;28;20490;-70
2022/05/27 13:33:02;;;;;;;6.27;2.00;;;15.10;99.90;;;;;;4962851;28;20606;-70
2022/05/27 13:35:50;;;;;;;5.20;1.83;;;15.20;99.90;;;;;;4963159;28;21073;-69
2022/05/27 13:38:50;;;;;;;7.70;2.33;;;15.20;99.90;;;;;;4956580;28;20479;-69
2022/05/27 13:41:43;;;;;;;4.60;1.90;;;15.10;99.90;;;;;;4959943;28;20930;-69
2022/05/27 13:44:34;;;;;;;5.20;1.93;;;15.20;99.90;;;;;;4962395;28;20449;-69
2022/05/27 13:47:26;;;;;;;5.83;1.50;;;15.30;99.90;;;;;;4964211;28;20473;-70
2022/05/27 13:50:29;;;;;;;6.43;1.93;;;15.40;99.90;;;;;;4963064;28;20551;-69
2022/05/27 13:53:23;;;;;;;8.43;2.40;;;15.40;99.90;;;;;;4961190;28;20970;-69
2022/05/27 13:56:14;;;;;;;6.00;2.63;;;15.20;99.90;;;;;;4960964;28;20501;-69
2022/05/27 13:59:12;;;;;;;6.10;1.83;;;15.20;99.90;;;;;;4963524;28;20490;-69
2022/05/27 14:02:03;;;;;;;7.27;2.10;;;15.40;99.90;;;;;;4962834;28;20842;-69
2022/05/27 14:04:53;;;;;;;3.67;2.00;;;15.70;99.90;;;;;;4960637;28;20529;-70
2022/05/27 14:07:46;;;;;;;4.43;1.77;;;15.90;99.90;;;;;;4959306;28;20494;-70
2022/05/27 14:10:42;;;;;;;5.90;2.23;;;15.90;99.90;;;;;;4958402;28;20517;-70
2022/05/27 14:13:33;;;;;;;6.23;1.97;;;16.00;99.90;;;;;;4960357;28;20478;-71
2022/05/27 14:16:29;;;;;;;3.80;2.40;;;16.30;99.90;;;;;;4961736;28;20971;-70
2022/05/27 14:19:23;;;;;;;7.20;2.20;;;16.50;99.90;;;;;;4960710;28;20479;-71
2022/05/27 14:25:31;;;;;;;7.63;2.00;;;16.70;99.90;;;;;;4957795;28;20463;-71
2022/05/27 14:28:27;;;;;;;6.53;1.90;;;17.00;99.90;;;;;;4960340;28;20451;-71
2022/05/27 14:31:19;;;;;;;10.00;1.73;;;17.00;99.90;;;;;;4959055;28;20461;-72
2022/05/27 14:34:15;;;;;;;6.10;2.30;;;17.10;99.90;;;;;;4957785;28;20482;-72
2022/05/27 14:37:28;;;;;;;8.53;2.63;;;17.00;99.90;;;;;;4960519;28;20508;-70
2022/05/27 14:40:23;;;;;;;4.83;2.00;;;16.60;99.90;;;;;;4958662;28;20896;-70
2022/05/27 14:43:24;;;;;;;9.50;2.00;;;16.40;99.90;;;;;;4954696;28;20554;-70
2022/05/27 14:46:15;;;;;;;7.57;1.77;;;16.10;99.90;;;;;;4960821;28;20856;-70
2022/05/27 14:49:26;;;;;;;6.30;2.00;;;16.00;99.90;;;;;;4961721;28;20941;-71
2022/05/27 14:52:19;;;;;;;6.17;2.23;;;16.20;99.90;;;;;;4958165;28;20483;-71
2022/05/27 14:55:12;;;;;;;9.00;2.50;;;16.30;99.90;;;;;;4959161;28;20494;-71
2022/05/27 14:58:08;;;;;;;5.43;2.47;;;16.20;99.90;;;;;;4958891;28;21564;-71
2022/05/27 15:00:57;;;;;;;9.13;2.47;;;16.00;99.90;;;;;;4957502;28;20493;-71
2022/05/27 15:04:10;;;;;;;5.10;2.00;;;15.90;99.90;;;;;;4958658;28;20470;-70
2022/05/27 15:07:17;;;;;;;6.97;2.30;;;15.50;99.90;;;;;;4961759;28;20482;-70
2022/05/27 15:10:19;;;;;;;4.00;1.83;;;14.90;99.90;;;;;;4964498;28;20838;-70
2022/05/27 15:13:29;;;;;;;6.47;2.00;;;15.30;99.90;;;;;;4961742;28;20553;-70
2022/05/27 15:16:34;;;;;;;9.47;2.57;;;15.60;99.90;;;;;;4961045;28;20979;-70
2022/05/27 15:19:25;;;;;;;5.20;2.00;;;15.70;99.90;;;;;;4958649;28;20467;-70
2022/05/27 15:22:18;;;;;;;8.87;2.73;;;15.60;99.90;;;;;;4961362;28;20617;-70
2022/05/27 15:25:10;;;;;;;5.23;2.20;;;15.50;99.90;;;;;;4961886;28;20580;-70
2022/05/27 15:34:24;;;;;;;7.70;2.00;;;14.70;99.90;;;;;;4961469;28;20473;-69
2022/05/27 15:37:12;;;;;;;3.20;1.70;;;14.90;99.90;;;;;;4959584;28;20479;-70
2022/05/27 15:40:04;;;;;;;7.60;2.57;;;15.10;99.90;;;;;;4964758;28;20478;-70
2022/05/27 15:42:55;;;;;;;5.90;1.90;;;15.20;99.90;;;;;;4966235;28;20541;-70
2022/05/27 15:45:47;;;;;;;6.40;1.73;;;15.50;99.90;;;;;;4965519;28;20485;-70
2022/05/27 15:48:37;;;;;;;4.67;1.70;;;15.80;99.90;;;;;;4964196;28;20986;-70
2022/05/27 15:51:27;;;;;;;5.50;2.27;;;16.00;99.90;;;;;;4965200;28;20455;-71
2022/05/27 15:54:23;;;;;;;5.13;2.13;;;16.30;99.90;;;;;;4965366;28;20481;-70
2022/05/27 15:57:15;;;;;;;4.63;1.93;;;16.30;99.90;;;;;;4964446;28;20474;-70
2022/05/27 16:00:06;;;;;;;4.20;1.97;;;16.40;99.90;;;;;;4963556;28;20850;-70
2022/05/27 16:03:06;;;;;;;5.70;1.57;;;16.30;99.90;;;;;;4966154;28;20541;-69